aviador You're here:

KMOB Decoded Metar

MOBILE in AL, USA
Report Time2017-11-25 06:56:00
UTC Time2017-11-25 07:21:52
Flight Rules vfr VFR
WindCalm
Visibility9999 m
Phenomena:N/A
Clouds:N/A
Expected CloudBase > 400 ft AGL from Temp-Dew spread
CeilingNone
Temp04°C (ISA -11)
Dew Point03°C (93% RH)
AAT2.5°C
QNH1016 hPa
Density Alt-1,073 ft
Elevation207 ft
Report Wrong Elevation
Raw Report
KMOB 250656Z AUTO 00000KT 9SM CLR 04/03 A3001 RMK AO2 SLP159
T00440028=

Extra information for KMOB:More info

Metar Taf Metar & Taf Last 4 Metars F.Rules Stats Wind Profile Meteogram Temp Stats Airport Information Weather charts Add Link Nearby VenuesMetar ALERT Operation Metar Decoded Social comments

AIRNAV info for KMOB